sensor_id;sensor_type;location;lat;lon;timestamp;temperature;humidity
22532;DHT22;11432;46.924;7.114;2022-09-16T00:00:16;14.60;99.90
22532;DHT22;11432;46.924;7.114;2022-09-16T00:02:42;14.60;99.90
22532;DHT22;11432;46.924;7.114;2022-09-16T00:05:08;14.60;99.90
22532;DHT22;11432;46.924;7.114;2022-09-16T00:07:34;14.70;99.90
22532;DHT22;11432;46.924;7.114;2022-09-16T00:10:00;14.60;99.90
22532;DHT22;11432;46.924;7.114;2022-09-16T00:12:26;14.60;99.90
22532;DHT22;11432;46.924;7.114;2022-09-16T00:14:52;14.50;99.90
22532;DHT22;11432;46.924;7.114;2022-09-16T00:17:18;14.60;99.90
22532;DHT22;11432;46.924;7.114;2022-09-16T00:19:44;14.60;99.90
22532;DHT22;11432;46.924;7.114;2022-09-16T00:22:10;14.60;99.90
22532;DHT22;11432;46.924;7.114;2022-09-16T00:24:35;14.50;99.90
22532;DHT22;11432;46.924;7.114;2022-09-16T00:27:01;14.50;99.90
22532;DHT22;11432;46.924;7.114;2022-09-16T00:29:26;14.40;99.90
22532;DHT22;11432;46.924;7.114;2022-09-16T00:31:52;14.50;99.90
22532;DHT22;11432;46.924;7.114;2022-09-16T00:34:18;14.40;99.90
22532;DHT22;11432;46.924;7.114;2022-09-16T00:36:43;14.50;99.90
22532;DHT22;11432;46.924;7.114;2022-09-16T00:39:09;14.40;99.90
22532;DHT22;11432;46.924;7.114;2022-09-16T00:41:35;14.40;99.90
22532;DHT22;11432;46.924;7.114;2022-09-16T00:44:48;14.50;99.90
22532;DHT22;11432;46.924;7.114;2022-09-16T00:46:52;14.50;99.90
22532;DHT22;11432;46.924;7.114;2022-09-16T00:49:21;14.60;99.90
22532;DHT22;11432;46.924;7.114;2022-09-16T00:51:53;14.70;99.90
22532;DHT22;11432;46.924;7.114;2022-09-16T00:54:21;14.70;99.90
22532;DHT22;11432;46.924;7.114;2022-09-16T00:56:50;14.70;99.90
22532;DHT22;11432;46.924;7.114;2022-09-16T00:59:21;14.80;99.90
22532;DHT22;11432;46.924;7.114;2022-09-16T01:01:50;14.80;99.90
22532;DHT22;11432;46.924;7.114;2022-09-16T01:04:26;14.90;99.90
22532;DHT22;11432;46.924;7.114;2022-09-16T01:06:53;14.90;99.90
22532;DHT22;11432;46.924;7.114;2022-09-16T01:09:21;14.90;99.90
22532;DHT22;11432;46.924;7.114;2022-09-16T01:11:47;14.90;99.90
22532;DHT22;11432;46.924;7.114;2022-09-16T01:14:14;14.90;99.90
22532;DHT22;11432;46.924;7.114;2022-09-16T01:22:45;15.00;99.90
22532;DHT22;11432;46.924;7.114;2022-09-16T01:34:15;15.10;99.90
22532;DHT22;11432;46.924;7.114;2022-09-16T01:37:06;15.10;99.90
22532;DHT22;11432;46.924;7.114;2022-09-16T01:44:43;15.20;99.90
22532;DHT22;11432;46.924;7.114;2022-09-16T01:50:13;15.20;99.90
22532;DHT22;11432;46.924;7.114;2022-09-16T01:55:31;15.20;99.90
22532;DHT22;11432;46.924;7.114;2022-09-16T01:58:05;15.20;99.90
22532;DHT22;11432;46.924;7.114;2022-09-16T02:00:32;15.20;99.90
22532;DHT22;11432;46.924;7.114;2022-09-16T02:03:05;15.20;99.90
22532;DHT22;11432;46.924;7.114;2022-09-16T02:05:48;15.20;99.90
22532;DHT22;11432;46.924;7.114;2022-09-16T02:08:53;15.30;99.90
22532;DHT22;11432;46.924;7.114;2022-09-16T02:11:18;15.20;99.90
22532;DHT22;11432;46.924;7.114;2022-09-16T02:13:52;15.20;99.90
22532;DHT22;11432;46.924;7.114;2022-09-16T02:18:56;15.20;99.90
22532;DHT22;11432;46.924;7.114;2022-09-16T02:21:24;15.20;99.90
22532;DHT22;11432;46.924;7.114;2022-09-16T02:23:54;15.20;99.90
22532;DHT22;11432;46.924;7.114;2022-09-16T02:26:26;15.20;99.90
22532;DHT22;11432;46.924;7.114;2022-09-16T02:28:54;15.20;99.90
22532;DHT22;11432;46.924;7.114;2022-09-16T02:31:31;15.20;99.90
22532;DHT22;11432;46.924;7.114;2022-09-16T02:34:04;15.20;99.90
22532;DHT22;11432;46.924;7.114;2022-09-16T02:36:35;15.20;99.90
22532;DHT22;11432;46.924;7.114;2022-09-16T02:39:06;15.30;99.90
22532;DHT22;11432;46.924;7.114;2022-09-16T02:41:35;15.30;99.90
22532;DHT22;11432;46.924;7.114;2022-09-16T02:44:02;15.30;99.90
22532;DHT22;11432;46.924;7.114;2022-09-16T02:46:38;15.30;99.90
22532;DHT22;11432;46.924;7.114;2022-09-16T02:52:06;15.20;99.90
22532;DHT22;11432;46.924;7.114;2022-09-16T02:57:05;15.20;99.90
22532;DHT22;11432;46.924;7.114;2022-09-16T02:59:31;15.20;99.90
22532;DHT22;11432;46.924;7.114;2022-09-16T03:01:58;15.20;99.90
22532;DHT22;11432;46.924;7.114;2022-09-16T03:04:24;15.20;99.90
22532;DHT22;11432;46.924;7.114;2022-09-16T03:06:50;15.20;99.90
22532;DHT22;11432;46.924;7.114;2022-09-16T03:09:16;15.10;99.90
22532;DHT22;11432;46.924;7.114;2022-09-16T03:14:51;15.20;99.90
22532;DHT22;11432;46.924;7.114;2022-09-16T03:20:21;15.10;99.90
22532;DHT22;11432;46.924;7.114;2022-09-16T03:28:19;15.10;99.90
22532;DHT22;11432;46.924;7.114;2022-09-16T03:31:02;15.10;99.90
22532;DHT22;11432;46.924;7.114;2022-09-16T03:33:38;15.00;99.90
22532;DHT22;11432;46.924;7.114;2022-09-16T03:36:09;14.90;99.90
22532;DHT22;11432;46.924;7.114;2022-09-16T03:38:37;15.00;99.90
22532;DHT22;11432;46.924;7.114;2022-09-16T03:41:05;14.90;99.90
22532;DHT22;11432;46.924;7.114;2022-09-16T03:43:32;14.90;99.90
22532;DHT22;11432;46.924;7.114;2022-09-16T03:45:57;14.90;99.90
22532;DHT22;11432;46.924;7.114;2022-09-16T03:48:23;14.90;99.90
22532;DHT22;11432;46.924;7.114;2022-09-16T03:50:49;14.90;99.90
22532;DHT22;11432;46.924;7.114;2022-09-16T03:53:14;15.00;99.90
22532;DHT22;11432;46.924;7.114;2022-09-16T03:55:40;15.00;99.90
22532;DHT22;11432;46.924;7.114;2022-09-16T03:58:06;15.20;99.90
22532;DHT22;11432;46.924;7.114;2022-09-16T04:00:31;15.10;99.90
22532;DHT22;11432;46.924;7.114;2022-09-16T04:02:58;15.20;99.90
22532;DHT22;11432;46.924;7.114;2022-09-16T04:05:24;15.30;99.90
22532;DHT22;11432;46.924;7.114;2022-09-16T04:07:50;15.30;99.90
22532;DHT22;11432;46.924;7.114;2022-09-16T04:10:16;15.20;99.90
22532;DHT22;11432;46.924;7.114;2022-09-16T04:12:42;15.10;99.90
22532;DHT22;11432;46.924;7.114;2022-09-16T04:15:08;15.00;99.90
22532;DHT22;11432;46.924;7.114;2022-09-16T04:17:34;14.90;99.90
22532;DHT22;11432;46.924;7.114;2022-09-16T04:20:00;14.80;99.90
22532;DHT22;11432;46.924;7.114;2022-09-16T04:22:29;14.70;99.90
22532;DHT22;11432;46.924;7.114;2022-09-16T04:24:56;14.70;99.90
22532;DHT22;11432;46.924;7.114;2022-09-16T04:27:22;14.90;99.90
22532;DHT22;11432;46.924;7.114;2022-09-16T04:29:47;14.80;99.90
22532;DHT22;11432;46.924;7.114;2022-09-16T04:32:13;14.80;99.90
22532;DHT22;11432;46.924;7.114;2022-09-16T04:34:38;14.90;99.90
22532;DHT22;11432;46.924;7.114;2022-09-16T04:37:04;14.80;99.90
22532;DHT22;11432;46.924;7.114;2022-09-16T04:39:30;14.80;99.90
22532;DHT22;11432;46.924;7.114;2022-09-16T04:41:55;14.70;99.90
22532;DHT22;11432;46.924;7.114;2022-09-16T04:44:21;14.70;99.90
22532;DHT22;11432;46.924;7.114;2022-09-16T04:46:47;14.70;99.90
22532;DHT22;11432;46.924;7.114;2022-09-16T04:49:12;14.70;99.90
22532;DHT22;11432;46.924;7.114;2022-09-16T04:51:38;14.70;99.90
22532;DHT22;11432;46.924;7.114;2022-09-16T04:54:04;14.70;99.90
22532;DHT22;11432;46.924;7.114;2022-09-16T04:56:31;14.60;99.90
22532;DHT22;11432;46.924;7.114;2022-09-16T04:59:01;14.60;99.90
22532;DHT22;11432;46.924;7.114;2022-09-16T05:01:33;14.60;99.90
22532;DHT22;11432;46.924;7.114;2022-09-16T05:04:01;14.70;99.90
22532;DHT22;11432;46.924;7.114;2022-09-16T05:06:30;14.70;99.90
22532;DHT22;11432;46.924;7.114;2022-09-16T05:08:56;14.70;99.90
22532;DHT22;11432;46.924;7.114;2022-09-16T05:11:28;14.70;99.90
22532;DHT22;11432;46.924;7.114;2022-09-16T05:13:57;14.60;99.90
22532;DHT22;11432;46.924;7.114;2022-09-16T05:16:23;14.60;99.90
22532;DHT22;11432;46.924;7.114;2022-09-16T05:18:50;14.60;99.90
22532;DHT22;11432;46.924;7.114;2022-09-16T05:21:18;14.60;99.90
22532;DHT22;11432;46.924;7.114;2022-09-16T05:23:45;14.50;99.90
22532;DHT22;11432;46.924;7.114;2022-09-16T05:26:24;14.60;99.90
22532;DHT22;11432;46.924;7.114;2022-09-16T05:28:50;14.60;99.90
22532;DHT22;11432;46.924;7.114;2022-09-16T05:31:24;14.80;99.90
22532;DHT22;11432;46.924;7.114;2022-09-16T05:33:58;15.00;99.90
22532;DHT22;11432;46.924;7.114;2022-09-16T05:36:26;15.10;99.90
22532;DHT22;11432;46.924;7.114;2022-09-16T05:38:52;15.10;99.90
22532;DHT22;11432;46.924;7.114;2022-09-16T05:41:18;15.10;99.90
22532;DHT22;11432;46.924;7.114;2022-09-16T05:43:43;15.10;99.90
22532;DHT22;11432;46.924;7.114;2022-09-16T05:46:12;15.00;99.90
22532;DHT22;11432;46.924;7.114;2022-09-16T05:48:40;15.00;99.90
22532;DHT22;11432;46.924;7.114;2022-09-16T05:51:06;14.90;99.90
22532;DHT22;11432;46.924;7.114;2022-09-16T05:53:33;14.90;99.90
22532;DHT22;11432;46.924;7.114;2022-09-16T05:56:03;14.90;99.90
22532;DHT22;11432;46.924;7.114;2022-09-16T05:58:30;15.00;99.90
22532;DHT22;11432;46.924;7.114;2022-09-16T06:01:10;15.00;99.90
22532;DHT22;11432;46.924;7.114;2022-09-16T06:03:37;15.20;99.90
22532;DHT22;11432;46.924;7.114;2022-09-16T06:06:10;15.20;99.90
22532;DHT22;11432;46.924;7.114;2022-09-16T06:08:37;15.30;99.90
22532;DHT22;11432;46.924;7.114;2022-09-16T06:11:05;15.30;99.90
22532;DHT22;11432;46.924;7.114;2022-09-16T06:13:31;15.30;99.90
22532;DHT22;11432;46.924;7.114;2022-09-16T06:15:57;15.40;99.90
22532;DHT22;11432;46.924;7.114;2022-09-16T06:18:24;15.40;99.90
22532;DHT22;11432;46.924;7.114;2022-09-16T06:20:50;15.50;99.90
22532;DHT22;11432;46.924;7.114;2022-09-16T06:23:16;15.50;99.90
22532;DHT22;11432;46.924;7.114;2022-09-16T06:25:43;15.50;99.90
22532;DHT22;11432;46.924;7.114;2022-09-16T06:28:08;15.50;99.90
22532;DHT22;11432;46.924;7.114;2022-09-16T06:30:36;15.50;99.90
22532;DHT22;11432;46.924;7.114;2022-09-16T06:33:02;15.80;99.90
22532;DHT22;11432;46.924;7.114;2022-09-16T06:35:27;15.80;99.90
22532;DHT22;11432;46.924;7.114;2022-09-16T06:37:53;15.90;99.90
22532;DHT22;11432;46.924;7.114;2022-09-16T06:40:19;16.00;99.90
22532;DHT22;11432;46.924;7.114;2022-09-16T06:42:45;16.10;99.90
22532;DHT22;11432;46.924;7.114;2022-09-16T06:45:10;16.10;99.90
22532;DHT22;11432;46.924;7.114;2022-09-16T06:47:36;16.00;99.90
22532;DHT22;11432;46.924;7.114;2022-09-16T06:50:02;16.00;99.90
22532;DHT22;11432;46.924;7.114;2022-09-16T06:52:29;16.20;99.90
22532;DHT22;11432;46.924;7.114;2022-09-16T06:54:54;16.30;64.00
22532;DHT22;11432;46.924;7.114;2022-09-16T06:57:20;16.30;99.90
22532;DHT22;11432;46.924;7.114;2022-09-16T06:59:51;16.40;12.90
22532;DHT22;11432;46.924;7.114;2022-09-16T07:02:18;16.40;99.90
22532;DHT22;11432;46.924;7.114;2022-09-16T07:04:45;16.50;90.70
22532;DHT22;11432;46.924;7.114;2022-09-16T07:07:12;16.50;99.90
22532;DHT22;11432;46.924;7.114;2022-09-16T07:09:38;16.50;99.90
22532;DHT22;11432;46.924;7.114;2022-09-16T07:12:05;16.40;99.90
22532;DHT22;11432;46.924;7.114;2022-09-16T07:14:31;16.40;99.90
22532;DHT22;11432;46.924;7.114;2022-09-16T07:17:00;16.50;99.90
22532;DHT22;11432;46.924;7.114;2022-09-16T07:19:26;16.50;99.90
22532;DHT22;11432;46.924;7.114;2022-09-16T07:21:52;16.70;99.90
22532;DHT22;11432;46.924;7.114;2022-09-16T07:24:18;16.70;99.90
22532;DHT22;11432;46.924;7.114;2022-09-16T07:26:45;16.70;99.90
22532;DHT22;11432;46.924;7.114;2022-09-16T07:29:13;16.80;99.90
22532;DHT22;11432;46.924;7.114;2022-09-16T07:31:39;16.80;62.90
22532;DHT22;11432;46.924;7.114;2022-09-16T07:34:08;16.70;18.10
22532;DHT22;11432;46.924;7.114;2022-09-16T07:36:42;16.80;1.00
22532;DHT22;11432;46.924;7.114;2022-09-16T07:39:10;16.70;1.00
22532;DHT22;11432;46.924;7.114;2022-09-16T07:41:39;16.80;40.20
22532;DHT22;11432;46.924;7.114;2022-09-16T07:44:05;16.80;1.00
22532;DHT22;11432;46.924;7.114;2022-09-16T07:46:33;16.90;1.00
22532;DHT22;11432;46.924;7.114;2022-09-16T07:49:00;17.00;1.00
22532;DHT22;11432;46.924;7.114;2022-09-16T07:51:27;17.30;11.10
22532;DHT22;11432;46.924;7.114;2022-09-16T07:53:55;17.60;1.00
22532;DHT22;11432;46.924;7.114;2022-09-16T07:56:22;17.70;1.00
22532;DHT22;11432;46.924;7.114;2022-09-16T07:58:50;17.70;1.00
22532;DHT22;11432;46.924;7.114;2022-09-16T08:01:16;17.70;1.00
22532;DHT22;11432;46.924;7.114;2022-09-16T08:03:43;17.40;1.00
22532;DHT22;11432;46.924;7.114;2022-09-16T08:06:14;17.20;1.00
22532;DHT22;11432;46.924;7.114;2022-09-16T08:08:40;17.40;1.00
22532;DHT22;11432;46.924;7.114;2022-09-16T08:11:06;17.70;1.00
22532;DHT22;11432;46.924;7.114;2022-09-16T08:13:33;17.80;1.00
22532;DHT22;11432;46.924;7.114;2022-09-16T08:16:08;17.90;1.00
22532;DHT22;11432;46.924;7.114;2022-09-16T08:18:34;18.00;1.00
22532;DHT22;11432;46.924;7.114;2022-09-16T08:21:13;18.20;1.00
22532;DHT22;11432;46.924;7.114;2022-09-16T08:23:39;17.90;1.00
22532;DHT22;11432;46.924;7.114;2022-09-16T08:26:06;18.00;1.00
22532;DHT22;11432;46.924;7.114;2022-09-16T08:28:51;18.00;1.00
22532;DHT22;11432;46.924;7.114;2022-09-16T08:31:18;18.10;1.00
22532;DHT22;11432;46.924;7.114;2022-09-16T08:33:44;18.20;1.00
22532;DHT22;11432;46.924;7.114;2022-09-16T08:36:19;18.00;1.00
22532;DHT22;11432;46.924;7.114;2022-09-16T08:38:46;18.30;1.00
22532;DHT22;11432;46.924;7.114;2022-09-16T08:44:40;18.40;1.00
22532;DHT22;11432;46.924;7.114;2022-09-16T08:49:53;18.50;1.00
22532;DHT22;11432;46.924;7.114;2022-09-16T08:52:31;18.70;1.00
22532;DHT22;11432;46.924;7.114;2022-09-16T08:55:06;19.00;1.00
22532;DHT22;11432;46.924;7.114;2022-09-16T08:57:38;19.10;1.00
22532;DHT22;11432;46.924;7.114;2022-09-16T09:00:16;19.20;1.00
22532;DHT22;11432;46.924;7.114;2022-09-16T09:03:01;19.30;1.00
22532;DHT22;11432;46.924;7.114;2022-09-16T09:05:49;19.10;1.00
22532;DHT22;11432;46.924;7.114;2022-09-16T09:10:57;18.70;1.00
22532;DHT22;11432;46.924;7.114;2022-09-16T09:25:44;17.80;1.00
22532;DHT22;11432;46.924;7.114;2022-09-16T09:34:05;17.50;1.00
22532;DHT22;11432;46.924;7.114;2022-09-16T09:47:47;17.50;1.00
22532;DHT22;11432;46.924;7.114;2022-09-16T09:50:16;18.20;1.00
22532;DHT22;11432;46.924;7.114;2022-09-16T09:55:43;19.10;1.00
22532;DHT22;11432;46.924;7.114;2022-09-16T10:00:52;19.50;1.00
22532;DHT22;11432;46.924;7.114;2022-09-16T10:03:22;19.60;1.00
22532;DHT22;11432;46.924;7.114;2022-09-16T10:05:47;19.70;1.00
22532;DHT22;11432;46.924;7.114;2022-09-16T10:10:48;19.70;1.00
22532;DHT22;11432;46.924;7.114;2022-09-16T10:13:15;19.30;1.00
22532;DHT22;11432;46.924;7.114;2022-09-16T10:15:42;19.10;1.00
22532;DHT22;11432;46.924;7.114;2022-09-16T10:18:13;18.90;1.00
22532;DHT22;11432;46.924;7.114;2022-09-16T10:20:42;19.10;99.90
22532;DHT22;11432;46.924;7.114;2022-09-16T10:23:11;19.40;1.00
22532;DHT22;11432;46.924;7.114;2022-09-16T10:25:37;19.10;99.90
22532;DHT22;11432;46.924;7.114;2022-09-16T10:28:15;18.90;99.90
22532;DHT22;11432;46.924;7.114;2022-09-16T10:30:45;18.60;99.90
22532;DHT22;11432;46.924;7.114;2022-09-16T10:33:20;18.30;99.90
22532;DHT22;11432;46.924;7.114;2022-09-16T10:35:56;18.10;99.90
22532;DHT22;11432;46.924;7.114;2022-09-16T10:38:34;18.10;1.00
22532;DHT22;11432;46.924;7.114;2022-09-16T10:41:24;18.10;1.00
22532;DHT22;11432;46.924;7.114;2022-09-16T10:43:59;18.20;99.90
22532;DHT22;11432;46.924;7.114;2022-09-16T10:46:27;19.00;99.90
22532;DHT22;11432;46.924;7.114;2022-09-16T10:48:58;19.60;1.00
22532;DHT22;11432;46.924;7.114;2022-09-16T10:51:27;19.80;1.00
22532;DHT22;11432;46.924;7.114;2022-09-16T10:53:57;19.40;1.00
22532;DHT22;11432;46.924;7.114;2022-09-16T10:56:34;19.10;99.90
22532;DHT22;11432;46.924;7.114;2022-09-16T10:59:12;18.90;99.90
22532;DHT22;11432;46.924;7.114;2022-09-16T11:18:24;19.20;99.90
22532;DHT22;11432;46.924;7.114;2022-09-16T11:23:53;19.10;99.90
22532;DHT22;11432;46.924;7.114;2022-09-16T11:29:21;18.80;99.90
22532;DHT22;11432;46.924;7.114;2022-09-16T11:53:31;20.70;1.00
22532;DHT22;11432;46.924;7.114;2022-09-16T11:59:14;21.40;1.00
22532;DHT22;11432;46.924;7.114;2022-09-16T12:01:50;20.80;1.00
22532;DHT22;11432;46.924;7.114;2022-09-16T12:07:05;20.90;99.90
22532;DHT22;11432;46.924;7.114;2022-09-16T12:09:42;22.00;1.00
22532;DHT22;11432;46.924;7.114;2022-09-16T12:12:19;21.30;1.00
22532;DHT22;11432;46.924;7.114;2022-09-16T12:14:58;21.60;1.00
22532;DHT22;11432;46.924;7.114;2022-09-16T12:17:30;20.50;99.90
22532;DHT22;11432;46.924;7.114;2022-09-16T12:20:15;20.00;99.90
22532;DHT22;11432;46.924;7.114;2022-09-16T12:22:53;19.50;40.80
22532;DHT22;11432;46.924;7.114;2022-09-16T12:25:31;19.40;99.90
22532;DHT22;11432;46.924;7.114;2022-09-16T12:28:02;19.60;79.50
22532;DHT22;11432;46.924;7.114;2022-09-16T12:30:41;20.40;99.90
22532;DHT22;11432;46.924;7.114;2022-09-16T12:33:20;20.70;99.90
22532;DHT22;11432;46.924;7.114;2022-09-16T12:35:58;20.10;99.90
22532;DHT22;11432;46.924;7.114;2022-09-16T12:38:26;19.50;99.90
22532;DHT22;11432;46.924;7.114;2022-09-16T12:41:02;18.90;99.90
22532;DHT22;11432;46.924;7.114;2022-09-16T12:44:21;18.60;1.00
22532;DHT22;11432;46.924;7.114;2022-09-16T12:49:27;18.30;3.10
22532;DHT22;11432;46.924;7.114;2022-09-16T12:52:18;18.30;1.00
22532;DHT22;11432;46.924;7.114;2022-09-16T13:00:18;18.30;1.00
22532;DHT22;11432;46.924;7.114;2022-09-16T13:02:53;18.40;1.00
22532;DHT22;11432;46.924;7.114;2022-09-16T13:05:34;18.30;1.00
22532;DHT22;11432;46.924;7.114;2022-09-16T13:08:26;18.20;1.00
22532;DHT22;11432;46.924;7.114;2022-09-16T13:11:04;18.30;1.00
22532;DHT22;11432;46.924;7.114;2022-09-16T13:13:39;18.30;1.00
22532;DHT22;11432;46.924;7.114;2022-09-16T13:16:07;18.40;1.00
22532;DHT22;11432;46.924;7.114;2022-09-16T13:18:44;18.30;1.00
22532;DHT22;11432;46.924;7.114;2022-09-16T13:21:28;18.30;1.00
22532;DHT22;11432;46.924;7.114;2022-09-16T13:24:17;18.30;1.00
22532;DHT22;11432;46.924;7.114;2022-09-16T13:26:44;18.20;24.20
22532;DHT22;11432;46.924;7.114;2022-09-16T13:31:58;18.20;76.80
22532;DHT22;11432;46.924;7.114;2022-09-16T13:34:24;18.40;99.10
22532;DHT22;11432;46.924;7.114;2022-09-16T13:36:49;18.40;1.70
22532;DHT22;11432;46.924;7.114;2022-09-16T13:39:31;18.40;1.00
22532;DHT22;11432;46.924;7.114;2022-09-16T13:42:09;18.30;1.00
22532;DHT22;11432;46.924;7.114;2022-09-16T13:44:41;18.20;41.30
22532;DHT22;11432;46.924;7.114;2022-09-16T13:49:41;18.30;8.40
22532;DHT22;11432;46.924;7.114;2022-09-16T13:52:10;18.30;1.00
22532;DHT22;11432;46.924;7.114;2022-09-16T13:54:42;18.40;1.00
22532;DHT22;11432;46.924;7.114;2022-09-16T13:57:23;18.40;1.00
22532;DHT22;11432;46.924;7.114;2022-09-16T14:00:17;18.40;1.00
22532;DHT22;11432;46.924;7.114;2022-09-16T14:08:25;18.50;1.00
22532;DHT22;11432;46.924;7.114;2022-09-16T14:10:59;18.40;1.00
22532;DHT22;11432;46.924;7.114;2022-09-16T14:13:34;18.40;1.00
22532;DHT22;11432;46.924;7.114;2022-09-16T14:16:01;18.30;1.00
22532;DHT22;11432;46.924;7.114;2022-09-16T14:18:28;18.20;1.00
22532;DHT22;11432;46.924;7.114;2022-09-16T14:21:16;18.20;1.00
22532;DHT22;11432;46.924;7.114;2022-09-16T14:23:42;18.20;1.00
22532;DHT22;11432;46.924;7.114;2022-09-16T14:26:11;18.20;1.00
22532;DHT22;11432;46.924;7.114;2022-09-16T14:28:38;18.30;1.00
22532;DHT22;11432;46.924;7.114;2022-09-16T14:31:08;18.20;1.00
22532;DHT22;11432;46.924;7.114;2022-09-16T14:33:43;18.20;1.00
22532;DHT22;11432;46.924;7.114;2022-09-16T14:36:33;18.10;1.00
22532;DHT22;11432;46.924;7.114;2022-09-16T14:39:10;18.00;1.00
22532;DHT22;11432;46.924;7.114;2022-09-16T14:41:50;17.90;1.00
22532;DHT22;11432;46.924;7.114;2022-09-16T14:49:41;17.90;1.00
22532;DHT22;11432;46.924;7.114;2022-09-16T14:52:23;17.80;1.00
22532;DHT22;11432;46.924;7.114;2022-09-16T14:54:49;17.80;1.00
22532;DHT22;11432;46.924;7.114;2022-09-16T14:57:21;17.80;1.00
22532;DHT22;11432;46.924;7.114;2022-09-16T14:59:53;17.90;1.00
22532;DHT22;11432;46.924;7.114;2022-09-16T15:07:44;18.10;1.00
22532;DHT22;11432;46.924;7.114;2022-09-16T15:10:25;18.10;1.00
22532;DHT22;11432;46.924;7.114;2022-09-16T15:13:04;17.90;1.00
22532;DHT22;11432;46.924;7.114;2022-09-16T15:15:34;17.80;1.00
22532;DHT22;11432;46.924;7.114;2022-09-16T15:18:06;17.90;1.00
22532;DHT22;11432;46.924;7.114;2022-09-16T15:20:39;18.20;1.00
22532;DHT22;11432;46.924;7.114;2022-09-16T15:23:13;18.30;1.00
22532;DHT22;11432;46.924;7.114;2022-09-16T15:25:51;18.10;1.00
22532;DHT22;11432;46.924;7.114;2022-09-16T15:28:18;17.90;1.00
22532;DHT22;11432;46.924;7.114;2022-09-16T15:30:50;17.80;1.00
22532;DHT22;11432;46.924;7.114;2022-09-16T15:33:35;17.70;1.00
22532;DHT22;11432;46.924;7.114;2022-09-16T15:36:02;17.70;38.80
22532;DHT22;11432;46.924;7.114;2022-09-16T15:38:28;17.70;27.20
22532;DHT22;11432;46.924;7.114;2022-09-16T15:41:04;17.60;8.30
22532;DHT22;11432;46.924;7.114;2022-09-16T15:43:38;17.70;99.90
22532;DHT22;11432;46.924;7.114;2022-09-16T15:46:21;17.60;98.20
22532;DHT22;11432;46.924;7.114;2022-09-16T15:48:54;17.50;3.30
22532;DHT22;11432;46.924;7.114;2022-09-16T15:53:58;17.50;72.70
22532;DHT22;11432;46.924;7.114;2022-09-16T15:56:47;17.60;42.50
22532;DHT22;11432;46.924;7.114;2022-09-16T15:59:40;17.70;37.00
22532;DHT22;11432;46.924;7.114;2022-09-16T16:02:28;18.00;72.90
22532;DHT22;11432;46.924;7.114;2022-09-16T16:05:08;18.50;1.00
22532;DHT22;11432;46.924;7.114;2022-09-16T16:07:41;19.00;1.00
22532;DHT22;11432;46.924;7.114;2022-09-16T16:10:25;19.10;1.00
22532;DHT22;11432;46.924;7.114;2022-09-16T16:12:52;18.50;1.00
22532;DHT22;11432;46.924;7.114;2022-09-16T16:15:23;18.00;1.00
22532;DHT22;11432;46.924;7.114;2022-09-16T16:17:51;17.70;11.90
22532;DHT22;11432;46.924;7.114;2022-09-16T16:20:19;17.60;1.00
22532;DHT22;11432;46.924;7.114;2022-09-16T16:22:45;17.50;47.60
22532;DHT22;11432;46.924;7.114;2022-09-16T16:25:12;17.40;1.00
22532;DHT22;11432;46.924;7.114;2022-09-16T16:27:38;17.20;34.10
22532;DHT22;11432;46.924;7.114;2022-09-16T16:30:05;17.20;99.90
22532;DHT22;11432;46.924;7.114;2022-09-16T16:32:31;17.00;99.90
22532;DHT22;11432;46.924;7.114;2022-09-16T16:34:57;17.00;99.90
22532;DHT22;11432;46.924;7.114;2022-09-16T16:37:24;16.90;99.90
22532;DHT22;11432;46.924;7.114;2022-09-16T16:39:50;16.70;99.90
22532;DHT22;11432;46.924;7.114;2022-09-16T16:42:16;16.60;99.90
22532;DHT22;11432;46.924;7.114;2022-09-16T16:44:42;16.60;99.90
22532;DHT22;11432;46.924;7.114;2022-09-16T16:47:08;16.50;99.90
22532;DHT22;11432;46.924;7.114;2022-09-16T16:49:34;16.40;99.90
22532;DHT22;11432;46.924;7.114;2022-09-16T16:52:01;16.40;99.90
22532;DHT22;11432;46.924;7.114;2022-09-16T16:54:28;16.30;99.90
22532;DHT22;11432;46.924;7.114;2022-09-16T16:56:54;16.20;99.90
22532;DHT22;11432;46.924;7.114;2022-09-16T16:59:21;16.20;99.90
22532;DHT22;11432;46.924;7.114;2022-09-16T17:01:50;16.10;99.90
22532;DHT22;11432;46.924;7.114;2022-09-16T17:04:16;16.10;99.90
22532;DHT22;11432;46.924;7.114;2022-09-16T17:06:42;16.00;99.90
22532;DHT22;11432;46.924;7.114;2022-09-16T17:09:09;16.00;99.90
22532;DHT22;11432;46.924;7.114;2022-09-16T17:11:36;15.90;99.90
22532;DHT22;11432;46.924;7.114;2022-09-16T17:14:05;16.00;99.90
22532;DHT22;11432;46.924;7.114;2022-09-16T17:16:32;15.90;99.90
22532;DHT22;11432;46.924;7.114;2022-09-16T17:18:59;15.80;99.90
22532;DHT22;11432;46.924;7.114;2022-09-16T17:21:28;15.80;99.90
22532;DHT22;11432;46.924;7.114;2022-09-16T17:23:54;15.90;99.90
22532;DHT22;11432;46.924;7.114;2022-09-16T17:26:21;15.80;1.00
22532;DHT22;11432;46.924;7.114;2022-09-16T17:28:49;15.80;1.00
22532;DHT22;11432;46.924;7.114;2022-09-16T17:31:23;15.70;99.90
22532;DHT22;11432;46.924;7.114;2022-09-16T17:33:52;15.80;99.90
22532;DHT22;11432;46.924;7.114;2022-09-16T17:36:18;15.70;99.90
22532;DHT22;11432;46.924;7.114;2022-09-16T17:38:45;15.60;99.90
22532;DHT22;11432;46.924;7.114;2022-09-16T17:41:13;15.60;99.90
22532;DHT22;11432;46.924;7.114;2022-09-16T17:43:39;15.50;99.90
22532;DHT22;11432;46.924;7.114;2022-09-16T17:46:10;15.50;99.90
22532;DHT22;11432;46.924;7.114;2022-09-16T17:48:36;15.50;99.90
22532;DHT22;11432;46.924;7.114;2022-09-16T17:51:02;15.50;99.90
22532;DHT22;11432;46.924;7.114;2022-09-16T17:53:28;15.40;99.90
22532;DHT22;11432;46.924;7.114;2022-09-16T17:56:06;15.40;99.90
22532;DHT22;11432;46.924;7.114;2022-09-16T17:58:32;15.30;99.90
22532;DHT22;11432;46.924;7.114;2022-09-16T18:01:14;15.30;99.90
22532;DHT22;11432;46.924;7.114;2022-09-16T18:03:42;15.20;99.90
22532;DHT22;11432;46.924;7.114;2022-09-16T18:06:10;15.30;99.90
22532;DHT22;11432;46.924;7.114;2022-09-16T18:08:37;15.30;99.90
22532;DHT22;11432;46.924;7.114;2022-09-16T18:11:04;15.30;99.90
22532;DHT22;11432;46.924;7.114;2022-09-16T18:13:30;15.30;99.90
22532;DHT22;11432;46.924;7.114;2022-09-16T18:16:01;15.30;99.90
22532;DHT22;11432;46.924;7.114;2022-09-16T18:18:27;15.30;99.90
22532;DHT22;11432;46.924;7.114;2022-09-16T18:20:53;15.30;99.90
22532;DHT22;11432;46.924;7.114;2022-09-16T18:23:20;15.30;99.90
22532;DHT22;11432;46.924;7.114;2022-09-16T18:25:46;15.30;99.90
22532;DHT22;11432;46.924;7.114;2022-09-16T18:28:11;15.20;99.90
22532;DHT22;11432;46.924;7.114;2022-09-16T18:30:37;15.20;97.70
22532;DHT22;11432;46.924;7.114;2022-09-16T18:33:02;15.20;94.70
22532;DHT22;11432;46.924;7.114;2022-09-16T18:35:28;15.20;67.90
22532;DHT22;11432;46.924;7.114;2022-09-16T18:37:54;15.20;76.80
22532;DHT22;11432;46.924;7.114;2022-09-16T18:40:20;15.10;48.40
22532;DHT22;11432;46.924;7.114;2022-09-16T18:42:45;15.10;12.70
22532;DHT22;11432;46.924;7.114;2022-09-16T18:45:11;15.00;15.30
22532;DHT22;11432;46.924;7.114;2022-09-16T18:47:37;15.00;8.60